sensor_id;sensor_type;location;lat;lon;timestamp;temperature;humidity
4453;DHT22;2239;48.152;11.584;2023-06-26T00:00:02;20.20;80.40
4453;DHT22;2239;48.152;11.584;2023-06-26T00:02:30;20.10;80.30
4453;DHT22;2239;48.152;11.584;2023-06-26T00:04:58;20.00;80.60
4453;DHT22;2239;48.152;11.584;2023-06-26T00:07:24;20.00;80.80
4453;DHT22;2239;48.152;11.584;2023-06-26T00:09:49;19.90;81.20
4453;DHT22;2239;48.152;11.584;2023-06-26T00:12:15;19.90;81.30
4453;DHT22;2239;48.152;11.584;2023-06-26T00:14:41;19.90;81.40
4453;DHT22;2239;48.152;11.584;2023-06-26T00:17:06;19.90;81.60
4453;DHT22;2239;48.152;11.584;2023-06-26T00:19:32;19.80;81.80
4453;DHT22;2239;48.152;11.584;2023-06-26T00:21:58;19.80;82.00
4453;DHT22;2239;48.152;11.584;2023-06-26T00:24:24;19.80;81.30
4453;DHT22;2239;48.152;11.584;2023-06-26T00:26:49;19.70;81.70
4453;DHT22;2239;48.152;11.584;2023-06-26T00:29:15;19.70;81.80
4453;DHT22;2239;48.152;11.584;2023-06-26T00:31:41;19.70;82.00
4453;DHT22;2239;48.152;11.584;2023-06-26T00:34:07;19.70;82.70
4453;DHT22;2239;48.152;11.584;2023-06-26T00:36:32;19.60;82.90
4453;DHT22;2239;48.152;11.584;2023-06-26T00:38:58;19.60;82.90
4453;DHT22;2239;48.152;11.584;2023-06-26T00:41:24;19.60;82.70
4453;DHT22;2239;48.152;11.584;2023-06-26T00:43:49;19.60;82.30
4453;DHT22;2239;48.152;11.584;2023-06-26T00:46:16;19.60;82.00
4453;DHT22;2239;48.152;11.584;2023-06-26T00:48:43;19.60;82.00
4453;DHT22;2239;48.152;11.584;2023-06-26T00:51:10;19.60;82.20
4453;DHT22;2239;48.152;11.584;2023-06-26T00:53:35;19.60;81.90
4453;DHT22;2239;48.152;11.584;2023-06-26T00:56:02;19.50;81.70
4453;DHT22;2239;48.152;11.584;2023-06-26T00:58:28;19.60;81.30
4453;DHT22;2239;48.152;11.584;2023-06-26T01:00:54;19.50;81.80
4453;DHT22;2239;48.152;11.584;2023-06-26T01:03:21;19.50;81.50
4453;DHT22;2239;48.152;11.584;2023-06-26T01:05:48;19.40;81.60
4453;DHT22;2239;48.152;11.584;2023-06-26T01:08:16;19.40;81.70
4453;DHT22;2239;48.152;11.584;2023-06-26T01:10:42;19.40;81.80
4453;DHT22;2239;48.152;11.584;2023-06-26T01:13:08;19.40;81.80
4453;DHT22;2239;48.152;11.584;2023-06-26T01:15:34;19.40;82.60
4453;DHT22;2239;48.152;11.584;2023-06-26T01:18:00;19.40;82.40
4453;DHT22;2239;48.152;11.584;2023-06-26T01:20:35;19.30;82.40
4453;DHT22;2239;48.152;11.584;2023-06-26T01:23:12;19.30;82.60
4453;DHT22;2239;48.152;11.584;2023-06-26T01:28:24;19.30;82.30
4453;DHT22;2239;48.152;11.584;2023-06-26T01:30:50;19.30;82.60
4453;DHT22;2239;48.152;11.584;2023-06-26T01:33:16;19.30;82.90
4453;DHT22;2239;48.152;11.584;2023-06-26T01:35:42;19.30;83.30
4453;DHT22;2239;48.152;11.584;2023-06-26T01:38:19;19.20;83.50
4453;DHT22;2239;48.152;11.584;2023-06-26T01:40:50;19.20;84.10
4453;DHT22;2239;48.152;11.584;2023-06-26T01:48:49;19.10;85.20
4453;DHT22;2239;48.152;11.584;2023-06-26T01:51:17;19.00;85.40
4453;DHT22;2239;48.152;11.584;2023-06-26T01:53:46;19.00;86.10
4453;DHT22;2239;48.152;11.584;2023-06-26T01:56:16;19.00;86.60
4453;DHT22;2239;48.152;11.584;2023-06-26T01:58:46;18.90;86.90
4453;DHT22;2239;48.152;11.584;2023-06-26T02:01:12;18.90;87.20
4453;DHT22;2239;48.152;11.584;2023-06-26T02:03:38;18.80;87.60
4453;DHT22;2239;48.152;11.584;2023-06-26T02:06:03;18.80;88.20
4453;DHT22;2239;48.152;11.584;2023-06-26T02:08:29;18.80;88.70
4453;DHT22;2239;48.152;11.584;2023-06-26T02:10:55;18.70;89.10
4453;DHT22;2239;48.152;11.584;2023-06-26T02:13:20;18.70;89.50
4453;DHT22;2239;48.152;11.584;2023-06-26T02:15:46;18.60;90.10
4453;DHT22;2239;48.152;11.584;2023-06-26T02:18:11;18.60;90.10
4453;DHT22;2239;48.152;11.584;2023-06-26T02:20:37;18.60;90.30
4453;DHT22;2239;48.152;11.584;2023-06-26T02:23:02;18.60;90.40
4453;DHT22;2239;48.152;11.584;2023-06-26T02:25:28;18.50;90.50
4453;DHT22;2239;48.152;11.584;2023-06-26T02:27:53;18.50;90.40
4453;DHT22;2239;48.152;11.584;2023-06-26T02:30:20;18.50;90.60
4453;DHT22;2239;48.152;11.584;2023-06-26T02:32:45;18.50;90.80
4453;DHT22;2239;48.152;11.584;2023-06-26T02:35:11;18.40;90.60
4453;DHT22;2239;48.152;11.584;2023-06-26T02:37:36;18.50;90.80
4453;DHT22;2239;48.152;11.584;2023-06-26T02:40:03;18.50;90.70
4453;DHT22;2239;48.152;11.584;2023-06-26T02:42:31;18.50;90.80
4453;DHT22;2239;48.152;11.584;2023-06-26T02:44:56;18.40;90.70
4453;DHT22;2239;48.152;11.584;2023-06-26T02:47:22;18.40;90.80
4453;DHT22;2239;48.152;11.584;2023-06-26T02:49:48;18.40;91.00
4453;DHT22;2239;48.152;11.584;2023-06-26T02:52:13;18.40;90.70
4453;DHT22;2239;48.152;11.584;2023-06-26T02:54:39;18.40;91.10
4453;DHT22;2239;48.152;11.584;2023-06-26T02:57:04;18.30;91.30
4453;DHT22;2239;48.152;11.584;2023-06-26T02:59:30;18.30;91.50
4453;DHT22;2239;48.152;11.584;2023-06-26T03:01:56;18.30;91.60
4453;DHT22;2239;48.152;11.584;2023-06-26T03:04:21;18.20;91.60
4453;DHT22;2239;48.152;11.584;2023-06-26T03:06:47;18.20;91.90
4453;DHT22;2239;48.152;11.584;2023-06-26T03:09:13;18.20;92.00
4453;DHT22;2239;48.152;11.584;2023-06-26T03:11:38;18.10;92.10
4453;DHT22;2239;48.152;11.584;2023-06-26T03:14:04;18.10;92.10
4453;DHT22;2239;48.152;11.584;2023-06-26T03:16:29;18.10;92.20
4453;DHT22;2239;48.152;11.584;2023-06-26T03:18:55;18.10;92.00
4453;DHT22;2239;48.152;11.584;2023-06-26T03:21:20;18.10;92.30
4453;DHT22;2239;48.152;11.584;2023-06-26T03:23:46;18.10;92.30
4453;DHT22;2239;48.152;11.584;2023-06-26T03:26:12;18.10;92.30
4453;DHT22;2239;48.152;11.584;2023-06-26T03:28:40;18.10;92.40
4453;DHT22;2239;48.152;11.584;2023-06-26T03:31:05;18.10;92.40
4453;DHT22;2239;48.152;11.584;2023-06-26T03:33:31;18.10;92.60
4453;DHT22;2239;48.152;11.584;2023-06-26T03:35:56;18.10;92.70
4453;DHT22;2239;48.152;11.584;2023-06-26T03:38:22;18.10;92.70
4453;DHT22;2239;48.152;11.584;2023-06-26T03:40:49;18.10;93.00
4453;DHT22;2239;48.152;11.584;2023-06-26T03:43:14;18.10;93.20
4453;DHT22;2239;48.152;11.584;2023-06-26T03:45:40;18.10;93.20
4453;DHT22;2239;48.152;11.584;2023-06-26T03:48:06;18.10;93.40
4453;DHT22;2239;48.152;11.584;2023-06-26T03:50:33;18.10;93.60
4453;DHT22;2239;48.152;11.584;2023-06-26T03:52:59;18.10;93.70
4453;DHT22;2239;48.152;11.584;2023-06-26T03:55:24;18.10;93.90
4453;DHT22;2239;48.152;11.584;2023-06-26T03:57:50;18.10;93.90
4453;DHT22;2239;48.152;11.584;2023-06-26T04:00:16;18.00;93.90
4453;DHT22;2239;48.152;11.584;2023-06-26T04:02:41;18.10;94.20
4453;DHT22;2239;48.152;11.584;2023-06-26T04:05:07;18.10;94.20
4453;DHT22;2239;48.152;11.584;2023-06-26T04:07:33;18.10;94.20
4453;DHT22;2239;48.152;11.584;2023-06-26T04:09:59;18.10;94.20
4453;DHT22;2239;48.152;11.584;2023-06-26T04:12:25;18.10;94.20
4453;DHT22;2239;48.152;11.584;2023-06-26T04:14:50;18.20;94.20
4453;DHT22;2239;48.152;11.584;2023-06-26T04:17:16;18.20;94.20
4453;DHT22;2239;48.152;11.584;2023-06-26T04:19:41;18.20;94.10
4453;DHT22;2239;48.152;11.584;2023-06-26T04:22:07;18.30;94.00
4453;DHT22;2239;48.152;11.584;2023-06-26T04:24:32;18.30;93.90
4453;DHT22;2239;48.152;11.584;2023-06-26T04:26:58;18.40;93.80
4453;DHT22;2239;48.152;11.584;2023-06-26T04:29:28;18.40;93.60
4453;DHT22;2239;48.152;11.584;2023-06-26T04:31:54;18.50;93.50
4453;DHT22;2239;48.152;11.584;2023-06-26T04:34:24;18.50;93.40
4453;DHT22;2239;48.152;11.584;2023-06-26T04:36:50;18.60;93.10
4453;DHT22;2239;48.152;11.584;2023-06-26T04:39:16;18.70;92.80
4453;DHT22;2239;48.152;11.584;2023-06-26T04:41:42;18.80;93.00
4453;DHT22;2239;48.152;11.584;2023-06-26T04:44:08;18.90;92.60
4453;DHT22;2239;48.152;11.584;2023-06-26T04:46:33;19.00;92.70
4453;DHT22;2239;48.152;11.584;2023-06-26T04:48:59;19.00;92.60
4453;DHT22;2239;48.152;11.584;2023-06-26T04:51:25;19.20;92.40
4453;DHT22;2239;48.152;11.584;2023-06-26T04:53:52;19.30;92.10
4453;DHT22;2239;48.152;11.584;2023-06-26T04:56:18;19.30;91.70
4453;DHT22;2239;48.152;11.584;2023-06-26T04:58:43;19.40;91.40
4453;DHT22;2239;48.152;11.584;2023-06-26T05:01:09;19.50;91.60
4453;DHT22;2239;48.152;11.584;2023-06-26T05:03:35;19.60;91.40
4453;DHT22;2239;48.152;11.584;2023-06-26T05:06:02;19.70;91.30
4453;DHT22;2239;48.152;11.584;2023-06-26T05:08:28;19.90;91.00
4453;DHT22;2239;48.152;11.584;2023-06-26T05:10:53;20.00;90.90
4453;DHT22;2239;48.152;11.584;2023-06-26T05:13:23;20.10;90.50
4453;DHT22;2239;48.152;11.584;2023-06-26T05:15:49;20.20;90.10
4453;DHT22;2239;48.152;11.584;2023-06-26T05:18:14;20.40;90.00
4453;DHT22;2239;48.152;11.584;2023-06-26T05:20:40;20.50;90.10
4453;DHT22;2239;48.152;11.584;2023-06-26T05:23:06;20.60;89.80
4453;DHT22;2239;48.152;11.584;2023-06-26T05:25:32;20.70;88.70
4453;DHT22;2239;48.152;11.584;2023-06-26T05:27:59;20.90;88.80
4453;DHT22;2239;48.152;11.584;2023-06-26T05:30:26;21.00;88.90
4453;DHT22;2239;48.152;11.584;2023-06-26T05:32:53;21.10;87.90
4453;DHT22;2239;48.152;11.584;2023-06-26T05:35:22;21.20;87.20
4453;DHT22;2239;48.152;11.584;2023-06-26T05:37:49;21.20;87.00
4453;DHT22;2239;48.152;11.584;2023-06-26T05:40:18;21.40;86.30
4453;DHT22;2239;48.152;11.584;2023-06-26T05:42:46;21.50;84.60
4453;DHT22;2239;48.152;11.584;2023-06-26T05:45:11;21.70;85.90
4453;DHT22;2239;48.152;11.584;2023-06-26T05:47:37;21.90;85.10
4453;DHT22;2239;48.152;11.584;2023-06-26T05:50:04;22.00;84.60
4453;DHT22;2239;48.152;11.584;2023-06-26T05:52:30;22.10;84.60
4453;DHT22;2239;48.152;11.584;2023-06-26T05:54:56;22.20;83.40
4453;DHT22;2239;48.152;11.584;2023-06-26T05:57:27;22.30;83.30
4453;DHT22;2239;48.152;11.584;2023-06-26T05:59:53;22.40;83.70
4453;DHT22;2239;48.152;11.584;2023-06-26T06:02:18;22.60;83.20
4453;DHT22;2239;48.152;11.584;2023-06-26T06:04:44;22.80;82.00
4453;DHT22;2239;48.152;11.584;2023-06-26T06:07:09;22.90;82.00
4453;DHT22;2239;48.152;11.584;2023-06-26T06:09:35;23.00;82.10
4453;DHT22;2239;48.152;11.584;2023-06-26T06:12:00;23.10;80.50
4453;DHT22;2239;48.152;11.584;2023-06-26T06:14:27;23.30;81.20
4453;DHT22;2239;48.152;11.584;2023-06-26T06:16:53;23.40;78.70
4453;DHT22;2239;48.152;11.584;2023-06-26T06:19:19;23.50;77.80
4453;DHT22;2239;48.152;11.584;2023-06-26T06:21:44;23.60;77.50
4453;DHT22;2239;48.152;11.584;2023-06-26T06:24:10;23.80;76.60
4453;DHT22;2239;48.152;11.584;2023-06-26T06:26:35;23.90;74.40
4453;DHT22;2239;48.152;11.584;2023-06-26T06:29:01;24.10;74.10
4453;DHT22;2239;48.152;11.584;2023-06-26T06:31:27;24.30;73.80
4453;DHT22;2239;48.152;11.584;2023-06-26T06:33:55;24.50;73.20
4453;DHT22;2239;48.152;11.584;2023-06-26T06:36:21;24.60;71.60
4453;DHT22;2239;48.152;11.584;2023-06-26T06:38:46;24.80;71.60
4453;DHT22;2239;48.152;11.584;2023-06-26T06:41:12;24.90;71.30
4453;DHT22;2239;48.152;11.584;2023-06-26T06:43:38;25.10;70.70
4453;DHT22;2239;48.152;11.584;2023-06-26T06:46:04;25.30;68.90
4453;DHT22;2239;48.152;11.584;2023-06-26T06:48:31;25.50;68.00
4453;DHT22;2239;48.152;11.584;2023-06-26T06:50:57;25.60;66.90
4453;DHT22;2239;48.152;11.584;2023-06-26T06:53:23;25.70;66.60
4453;DHT22;2239;48.152;11.584;2023-06-26T06:55:49;25.80;66.60
4453;DHT22;2239;48.152;11.584;2023-06-26T06:58:15;25.80;66.60
4453;DHT22;2239;48.152;11.584;2023-06-26T07:00:42;25.90;66.20
4453;DHT22;2239;48.152;11.584;2023-06-26T07:03:08;25.90;66.10
4453;DHT22;2239;48.152;11.584;2023-06-26T07:05:34;25.90;65.60
4453;DHT22;2239;48.152;11.584;2023-06-26T07:07:59;26.00;66.90
4453;DHT22;2239;48.152;11.584;2023-06-26T07:10:25;26.00;66.40
4453;DHT22;2239;48.152;11.584;2023-06-26T07:12:50;26.10;66.70
4453;DHT22;2239;48.152;11.584;2023-06-26T07:15:16;26.20;66.20
4453;DHT22;2239;48.152;11.584;2023-06-26T07:17:42;26.20;66.40
4453;DHT22;2239;48.152;11.584;2023-06-26T07:20:08;26.30;65.70
4453;DHT22;2239;48.152;11.584;2023-06-26T07:22:36;26.40;65.80
4453;DHT22;2239;48.152;11.584;2023-06-26T07:25:01;26.50;64.70
4453;DHT22;2239;48.152;11.584;2023-06-26T07:27:27;26.60;64.80
4453;DHT22;2239;48.152;11.584;2023-06-26T07:29:52;26.60;64.10
4453;DHT22;2239;48.152;11.584;2023-06-26T07:32:18;26.70;64.40
4453;DHT22;2239;48.152;11.584;2023-06-26T07:34:43;26.80;63.90
4453;DHT22;2239;48.152;11.584;2023-06-26T07:37:09;27.00;63.20
4453;DHT22;2239;48.152;11.584;2023-06-26T07:39:35;27.00;62.50
4453;DHT22;2239;48.152;11.584;2023-06-26T07:42:00;27.10;63.50
4453;DHT22;2239;48.152;11.584;2023-06-26T07:44:26;27.20;63.70
4453;DHT22;2239;48.152;11.584;2023-06-26T07:46:52;27.30;63.50
4453;DHT22;2239;48.152;11.584;2023-06-26T07:49:17;27.40;63.80
4453;DHT22;2239;48.152;11.584;2023-06-26T07:51:43;27.50;63.80
4453;DHT22;2239;48.152;11.584;2023-06-26T07:54:08;27.60;64.10
4453;DHT22;2239;48.152;11.584;2023-06-26T07:57:01;27.80;64.30
4453;DHT22;2239;48.152;11.584;2023-06-26T07:59:28;27.80;64.30
4453;DHT22;2239;48.152;11.584;2023-06-26T08:01:56;27.90;63.70
4453;DHT22;2239;48.152;11.584;2023-06-26T08:04:24;28.00;63.80
4453;DHT22;2239;48.152;11.584;2023-06-26T08:06:51;28.10;63.30
4453;DHT22;2239;48.152;11.584;2023-06-26T08:09:18;28.10;63.00
4453;DHT22;2239;48.152;11.584;2023-06-26T08:11:44;28.30;63.00
4453;DHT22;2239;48.152;11.584;2023-06-26T08:14:10;28.30;62.50
4453;DHT22;2239;48.152;11.584;2023-06-26T08:16:37;28.30;62.50
4453;DHT22;2239;48.152;11.584;2023-06-26T08:19:03;28.40;62.60
4453;DHT22;2239;48.152;11.584;2023-06-26T08:21:28;28.60;62.50
4453;DHT22;2239;48.152;11.584;2023-06-26T08:23:54;28.80;62.20
4453;DHT22;2239;48.152;11.584;2023-06-26T08:26:20;28.80;61.40
4453;DHT22;2239;48.152;11.584;2023-06-26T08:28:45;28.90;61.40
4453;DHT22;2239;48.152;11.584;2023-06-26T08:31:11;29.10;61.40
4453;DHT22;2239;48.152;11.584;2023-06-26T08:33:37;29.30;60.70
4453;DHT22;2239;48.152;11.584;2023-06-26T08:36:03;29.40;60.50
4453;DHT22;2239;48.152;11.584;2023-06-26T08:38:28;29.60;60.10
4453;DHT22;2239;48.152;11.584;2023-06-26T08:40:54;29.50;60.20
4453;DHT22;2239;48.152;11.584;2023-06-26T08:43:19;29.70;60.00
4453;DHT22;2239;48.152;11.584;2023-06-26T08:45:47;29.80;59.10
4453;DHT22;2239;48.152;11.584;2023-06-26T08:48:17;29.90;58.30
4453;DHT22;2239;48.152;11.584;2023-06-26T08:50:44;29.90;58.70
4453;DHT22;2239;48.152;11.584;2023-06-26T08:55:44;30.10;58.00
4453;DHT22;2239;48.152;11.584;2023-06-26T08:58:10;30.30;57.10
4453;DHT22;2239;48.152;11.584;2023-06-26T09:00:38;30.50;57.30
4453;DHT22;2239;48.152;11.584;2023-06-26T09:03:04;30.60;55.70
4453;DHT22;2239;48.152;11.584;2023-06-26T09:05:30;30.90;55.90
4453;DHT22;2239;48.152;11.584;2023-06-26T09:07:57;30.80;55.00
4453;DHT22;2239;48.152;11.584;2023-06-26T09:10:24;30.50;54.90
4453;DHT22;2239;48.152;11.584;2023-06-26T09:12:50;30.70;55.70
4453;DHT22;2239;48.152;11.584;2023-06-26T09:15:19;30.80;54.80
4453;DHT22;2239;48.152;11.584;2023-06-26T09:17:44;31.00;54.60
4453;DHT22;2239;48.152;11.584;2023-06-26T09:20:10;31.30;53.70
4453;DHT22;2239;48.152;11.584;2023-06-26T09:22:37;31.50;53.50
4453;DHT22;2239;48.152;11.584;2023-06-26T09:25:06;31.50;52.60
4453;DHT22;2239;48.152;11.584;2023-06-26T09:27:33;31.50;52.90
4453;DHT22;2239;48.152;11.584;2023-06-26T09:29:59;31.50;53.00
4453;DHT22;2239;48.152;11.584;2023-06-26T09:32:25;31.60;51.30
4453;DHT22;2239;48.152;11.584;2023-06-26T09:34:52;31.90;50.90
4453;DHT22;2239;48.152;11.584;2023-06-26T09:37:19;32.00;49.70
4453;DHT22;2239;48.152;11.584;2023-06-26T09:39:44;32.00;49.70
4453;DHT22;2239;48.152;11.584;2023-06-26T09:42:13;32.30;49.80
4453;DHT22;2239;48.152;11.584;2023-06-26T09:44:46;32.60;49.00
4453;DHT22;2239;48.152;11.584;2023-06-26T09:47:12;32.50;48.10
4453;DHT22;2239;48.152;11.584;2023-06-26T09:49:42;32.70;47.40
4453;DHT22;2239;48.152;11.584;2023-06-26T09:52:08;32.50;46.50
4453;DHT22;2239;48.152;11.584;2023-06-26T09:54:34;32.30;47.70
4453;DHT22;2239;48.152;11.584;2023-06-26T09:57:10;32.40;46.40
4453;DHT22;2239;48.152;11.584;2023-06-26T09:59:36;32.50;46.10
4453;DHT22;2239;48.152;11.584;2023-06-26T10:02:02;32.80;45.20
4453;DHT22;2239;48.152;11.584;2023-06-26T10:04:28;33.00;44.50
4453;DHT22;2239;48.152;11.584;2023-06-26T10:06:58;33.00;44.50
4453;DHT22;2239;48.152;11.584;2023-06-26T10:09:26;32.90;44.00
4453;DHT22;2239;48.152;11.584;2023-06-26T10:14:26;32.70;43.30
4453;DHT22;2239;48.152;11.584;2023-06-26T10:16:52;32.60;43.60
4453;DHT22;2239;48.152;11.584;2023-06-26T10:19:21;32.30;44.00
4453;DHT22;2239;48.152;11.584;2023-06-26T10:21:54;32.50;44.20
4453;DHT22;2239;48.152;11.584;2023-06-26T10:24:21;32.70;43.20
4453;DHT22;2239;48.152;11.584;2023-06-26T10:26:49;33.00;43.30
4453;DHT22;2239;48.152;11.584;2023-06-26T10:29:17;33.30;42.50
4453;DHT22;2239;48.152;11.584;2023-06-26T10:31:50;33.50;41.80
4453;DHT22;2239;48.152;11.584;2023-06-26T10:34:16;33.40;41.50
4453;DHT22;2239;48.152;11.584;2023-06-26T10:36:42;33.40;42.40
4453;DHT22;2239;48.152;11.584;2023-06-26T10:39:08;33.40;41.60
4453;DHT22;2239;48.152;11.584;2023-06-26T10:41:40;33.20;41.10
4453;DHT22;2239;48.152;11.584;2023-06-26T10:44:11;33.30;40.50
4453;DHT22;2239;48.152;11.584;2023-06-26T10:46:52;33.20;40.20
4453;DHT22;2239;48.152;11.584;2023-06-26T10:49:19;33.40;40.70
4453;DHT22;2239;48.152;11.584;2023-06-26T10:51:49;33.70;41.00
4453;DHT22;2239;48.152;11.584;2023-06-26T10:54:16;34.00;39.90
4453;DHT22;2239;48.152;11.584;2023-06-26T10:56:49;33.90;39.70
4453;DHT22;2239;48.152;11.584;2023-06-26T10:59:21;33.80;39.70
4453;DHT22;2239;48.152;11.584;2023-06-26T11:01:54;34.00;39.70
4453;DHT22;2239;48.152;11.584;2023-06-26T11:07:24;34.30;38.50
4453;DHT22;2239;48.152;11.584;2023-06-26T11:12:40;34.20;39.60
4453;DHT22;2239;48.152;11.584;2023-06-26T11:15:12;34.00;38.80
4453;DHT22;2239;48.152;11.584;2023-06-26T11:17:39;33.80;39.20
4453;DHT22;2239;48.152;11.584;2023-06-26T11:20:06;33.50;39.20
4453;DHT22;2239;48.152;11.584;2023-06-26T11:22:35;33.10;39.90
4453;DHT22;2239;48.152;11.584;2023-06-26T11:25:02;33.30;40.70
4453;DHT22;2239;48.152;11.584;2023-06-26T11:30:11;33.90;39.70
4453;DHT22;2239;48.152;11.584;2023-06-26T11:32:37;34.20;39.40
4453;DHT22;2239;48.152;11.584;2023-06-26T11:35:03;34.20;39.20
4453;DHT22;2239;48.152;11.584;2023-06-26T11:37:32;34.30;39.50
4453;DHT22;2239;48.152;11.584;2023-06-26T11:39:59;34.40;40.30
4453;DHT22;2239;48.152;11.584;2023-06-26T11:42:25;34.60;40.00
4453;DHT22;2239;48.152;11.584;2023-06-26T11:44:51;34.40;39.10
4453;DHT22;2239;48.152;11.584;2023-06-26T11:47:19;34.10;39.60
4453;DHT22;2239;48.152;11.584;2023-06-26T11:49:46;33.80;40.00
4453;DHT22;2239;48.152;11.584;2023-06-26T11:52:14;33.80;40.00
4453;DHT22;2239;48.152;11.584;2023-06-26T11:54:40;34.00;39.90
4453;DHT22;2239;48.152;11.584;2023-06-26T11:57:06;34.20;39.60
4453;DHT22;2239;48.152;11.584;2023-06-26T11:59:37;34.40;39.20
4453;DHT22;2239;48.152;11.584;2023-06-26T12:02:07;34.30;39.30
4453;DHT22;2239;48.152;11.584;2023-06-26T12:04:34;34.40;38.30
4453;DHT22;2239;48.152;11.584;2023-06-26T12:07:01;34.50;38.30
4453;DHT22;2239;48.152;11.584;2023-06-26T12:09:31;34.70;37.90
4453;DHT22;2239;48.152;11.584;2023-06-26T12:11:59;34.50;36.20
4453;DHT22;2239;48.152;11.584;2023-06-26T12:14:25;34.40;36.70
4453;DHT22;2239;48.152;11.584;2023-06-26T12:16:52;34.30;37.00
4453;DHT22;2239;48.152;11.584;2023-06-26T12:19:24;34.30;37.40
4453;DHT22;2239;48.152;11.584;2023-06-26T12:21:50;34.40;37.40
4453;DHT22;2239;48.152;11.584;2023-06-26T12:24:21;34.50;37.50
4453;DHT22;2239;48.152;11.584;2023-06-26T12:26:51;34.50;37.80
4453;DHT22;2239;48.152;11.584;2023-06-26T12:29:19;34.60;37.20
4453;DHT22;2239;48.152;11.584;2023-06-26T12:31:50;34.70;38.20
4453;DHT22;2239;48.152;11.584;2023-06-26T12:34:20;34.60;37.80
4453;DHT22;2239;48.152;11.584;2023-06-26T12:36:48;34.50;38.40
4453;DHT22;2239;48.152;11.584;2023-06-26T12:39:19;34.60;37.50
4453;DHT22;2239;48.152;11.584;2023-06-26T12:41:48;34.60;36.80
4453;DHT22;2239;48.152;11.584;2023-06-26T12:44:30;34.70;37.20
4453;DHT22;2239;48.152;11.584;2023-06-26T12:47:00;34.60;36.80
4453;DHT22;2239;48.152;11.584;2023-06-26T12:49:36;34.70;36.20
4453;DHT22;2239;48.152;11.584;2023-06-26T12:52:06;34.80;36.40
4453;DHT22;2239;48.152;11.584;2023-06-26T12:54:36;34.80;36.80
4453;DHT22;2239;48.152;11.584;2023-06-26T12:57:02;34.70;36.50
4453;DHT22;2239;48.152;11.584;2023-06-26T12:59:32;34.40;37.20
4453;DHT22;2239;48.152;11.584;2023-06-26T13:01:58;34.00;38.00
4453;DHT22;2239;48.152;11.584;2023-06-26T13:04:24;34.00;37.50
4453;DHT22;2239;48.152;11.584;2023-06-26T13:06:51;34.00;37.10
4453;DHT22;2239;48.152;11.584;2023-06-26T13:09:17;34.20;37.10
4453;DHT22;2239;48.152;11.584;2023-06-26T13:11:43;34.30;37.40
4453;DHT22;2239;48.152;11.584;2023-06-26T13:14:08;34.60;37.00
4453;DHT22;2239;48.152;11.584;2023-06-26T13:16:34;34.70;36.70
4453;DHT22;2239;48.152;11.584;2023-06-26T13:19:00;34.70;36.20
4453;DHT22;2239;48.152;11.584;2023-06-26T13:21:28;34.80;36.40
4453;DHT22;2239;48.152;11.584;2023-06-26T13:23:55;35.00;36.30
4453;DHT22;2239;48.152;11.584;2023-06-26T13:26:21;34.80;37.10
4453;DHT22;2239;48.152;11.584;2023-06-26T13:28:48;34.70;37.40
4453;DHT22;2239;48.152;11.584;2023-06-26T13:31:14;34.60;37.00
4453;DHT22;2239;48.152;11.584;2023-06-26T13:33:39;34.30;37.80
4453;DHT22;2239;48.152;11.584;2023-06-26T13:36:05;34.30;38.20
4453;DHT22;2239;48.152;11.584;2023-06-26T13:38:33;34.30;38.20
4453;DHT22;2239;48.152;11.584;2023-06-26T13:40:59;34.30;38.10
4453;DHT22;2239;48.152;11.584;2023-06-26T13:43:29;34.40;38.40
4453;DHT22;2239;48.152;11.584;2023-06-26T13:45:55;34.40;39.10
4453;DHT22;2239;48.152;11.584;2023-06-26T13:48:21;34.10;38.20
4453;DHT22;2239;48.152;11.584;2023-06-26T13:50:47;33.90;38.50
4453;DHT22;2239;48.152;11.584;2023-06-26T13:53:13;33.90;38.70
4453;DHT22;2239;48.152;11.584;2023-06-26T13:55:40;34.10;38.60
4453;DHT22;2239;48.152;11.584;2023-06-26T13:58:06;34.10;38.10
4453;DHT22;2239;48.152;11.584;2023-06-26T14:00:33;33.60;38.30
4453;DHT22;2239;48.152;11.584;2023-06-26T14:03:03;33.50;39.10
4453;DHT22;2239;48.152;11.584;2023-06-26T14:05:36;33.70;38.90
4453;DHT22;2239;48.152;11.584;2023-06-26T14:08:03;34.00;39.00
4453;DHT22;2239;48.152;11.584;2023-06-26T14:10:32;34.20;38.20
4453;DHT22;2239;48.152;11.584;2023-06-26T14:13:02;34.30;37.90
4453;DHT22;2239;48.152;11.584;2023-06-26T14:15:28;34.30;37.60
4453;DHT22;2239;48.152;11.584;2023-06-26T14:17:54;34.50;37.80
4453;DHT22;2239;48.152;11.584;2023-06-26T14:20:21;34.50;37.60
4453;DHT22;2239;48.152;11.584;2023-06-26T14:22:48;34.60;37.20
4453;DHT22;2239;48.152;11.584;2023-06-26T14:25:15;34.60;36.90
4453;DHT22;2239;48.152;11.584;2023-06-26T14:27:41;34.50;36.50
4453;DHT22;2239;48.152;11.584;2023-06-26T14:30:07;34.50;36.60
4453;DHT22;2239;48.152;11.584;2023-06-26T14:32:33;34.30;37.50
4453;DHT22;2239;48.152;11.584;2023-06-26T14:34:59;34.20;37.20
4453;DHT22;2239;48.152;11.584;2023-06-26T14:37:25;33.90;37.10
4453;DHT22;2239;48.152;11.584;2023-06-26T14:39:51;33.80;37.40
4453;DHT22;2239;48.152;11.584;2023-06-26T14:42:17;33.90;38.00
4453;DHT22;2239;48.152;11.584;2023-06-26T14:44:42;33.90;37.50
4453;DHT22;2239;48.152;11.584;2023-06-26T14:47:08;34.00;37.60
4453;DHT22;2239;48.152;11.584;2023-06-26T14:49:34;34.10;37.40
4453;DHT22;2239;48.152;11.584;2023-06-26T14:51:59;34.30;37.80
4453;DHT22;2239;48.152;11.584;2023-06-26T14:54:25;34.30;37.80
4453;DHT22;2239;48.152;11.584;2023-06-26T14:56:50;34.00;37.60
4453;DHT22;2239;48.152;11.584;2023-06-26T14:59:16;33.80;38.10
4453;DHT22;2239;48.152;11.584;2023-06-26T15:01:41;33.50;37.90
4453;DHT22;2239;48.152;11.584;2023-06-26T15:04:07;33.30;38.80
4453;DHT22;2239;48.152;11.584;2023-06-26T15:06:34;33.40;38.40
4453;DHT22;2239;48.152;11.584;2023-06-26T15:08:59;33.50;38.60
4453;DHT22;2239;48.152;11.584;2023-06-26T15:11:25;33.70;38.70
4453;DHT22;2239;48.152;11.584;2023-06-26T15:13:51;33.80;38.30
4453;DHT22;2239;48.152;11.584;2023-06-26T15:16:16;33.80;38.30
4453;DHT22;2239;48.152;11.584;2023-06-26T15:18:42;33.70;38.10
4453;DHT22;2239;48.152;11.584;2023-06-26T15:21:07;33.60;37.90
4453;DHT22;2239;48.152;11.584;2023-06-26T15:23:36;33.60;37.90
4453;DHT22;2239;48.152;11.584;2023-06-26T15:26:01;33.40;38.30
4453;DHT22;2239;48.152;11.584;2023-06-26T15:28:27;33.30;38.40
4453;DHT22;2239;48.152;11.584;2023-06-26T15:30:53;33.10;38.80
4453;DHT22;2239;48.152;11.584;2023-06-26T15:33:18;32.90;39.00
4453;DHT22;2239;48.152;11.584;2023-06-26T15:35:44;32.80;39.40
4453;DHT22;2239;48.152;11.584;2023-06-26T15:38:10;32.50;39.50
4453;DHT22;2239;48.152;11.584;2023-06-26T15:40:36;32.30;39.90
4453;DHT22;2239;48.152;11.584;2023-06-26T15:43:02;32.20;40.10
4453;DHT22;2239;48.152;11.584;2023-06-26T15:45:29;32.10;40.00
4453;DHT22;2239;48.152;11.584;2023-06-26T15:47:55;32.00;40.20
4453;DHT22;2239;48.152;11.584;2023-06-26T15:50:21;31.90;40.40
4453;DHT22;2239;48.152;11.584;2023-06-26T15:52:47;31.80;40.60
4453;DHT22;2239;48.152;11.584;2023-06-26T15:55:13;31.60;40.80
4453;DHT22;2239;48.152;11.584;2023-06-26T15:57:39;31.50;41.30
4453;DHT22;2239;48.152;11.584;2023-06-26T16:00:05;31.50;41.20
4453;DHT22;2239;48.152;11.584;2023-06-26T16:02:31;31.40;41.40